createdAt,value
2022-12-11T00:00:38.983Z,1010.96
2022-12-11T00:01:39.141Z,1011.01
2022-12-11T00:02:39.354Z,1010.99
2022-12-11T00:03:39.603Z,1011.04
2022-12-11T00:04:39.660Z,1011.01
2022-12-11T00:05:39.826Z,1010.98
2022-12-11T00:06:39.992Z,1011.00
2022-12-11T00:07:40.159Z,1010.95
2022-12-11T00:08:40.343Z,1010.91
2022-12-11T00:09:40.492Z,1010.93
2022-12-11T00:10:40.662Z,1010.90
2022-12-11T00:11:40.829Z,1010.86
2022-12-11T00:12:40.997Z,1010.88
2022-12-11T00:13:41.178Z,1010.88
2022-12-11T00:14:41.372Z,1010.84
2022-12-11T00:15:41.515Z,1010.84
2022-12-11T00:16:41.716Z,1010.85
2022-12-11T00:17:41.865Z,1010.86
2022-12-11T00:18:42.034Z,1010.86
2022-12-11T00:19:42.206Z,1010.92
2022-12-11T00:20:42.370Z,1010.92
2022-12-11T00:21:42.523Z,1010.93
2022-12-11T00:22:42.697Z,1010.92
2022-12-11T00:23:42.873Z,1010.92
2022-12-11T00:24:43.048Z,1010.88
2022-12-11T00:25:43.206Z,1010.92
2022-12-11T00:26:43.372Z,1010.91
2022-12-11T00:27:43.548Z,1010.86
2022-12-11T00:28:43.746Z,1010.90
2022-12-11T00:29:43.876Z,1010.91
2022-12-11T00:30:44.045Z,1010.91
2022-12-11T00:31:44.215Z,1010.88
2022-12-11T00:32:44.380Z,1010.90
2022-12-11T00:33:44.631Z,1010.90
2022-12-11T00:34:44.708Z,1010.89
2022-12-11T00:35:44.866Z,1010.88
2022-12-11T00:36:45.026Z,1010.88
2022-12-11T00:37:45.196Z,1010.91
2022-12-11T00:38:45.354Z,1010.90
2022-12-11T00:39:45.519Z,1010.87
2022-12-11T00:40:45.683Z,1010.85
2022-12-11T00:41:45.848Z,1010.85
2022-12-11T00:42:46.035Z,1010.90
2022-12-11T00:43:46.197Z,1010.86
2022-12-11T00:44:46.355Z,1010.87
2022-12-11T00:45:46.578Z,1010.91
2022-12-11T00:46:46.699Z,1010.96
2022-12-11T00:47:46.860Z,1010.94
2022-12-11T00:48:47.044Z,1010.93
2022-12-11T00:49:50.025Z,1010.94
2022-12-11T00:50:47.380Z,1010.93
2022-12-11T00:51:47.590Z,1010.86
2022-12-11T00:52:47.710Z,1010.86
2022-12-11T00:53:47.881Z,1010.81
2022-12-11T00:54:48.039Z,1010.82
2022-12-11T00:55:48.215Z,1010.74
2022-12-11T00:56:48.390Z,1010.73
2022-12-11T00:57:48.549Z,1010.73
2022-12-11T00:58:48.735Z,1010.74
2022-12-11T00:59:48.893Z,1010.70
2022-12-11T01:00:49.067Z,1010.66
2022-12-11T01:01:49.304Z,1010.65
2022-12-11T01:02:49.463Z,1010.67
2022-12-11T01:03:49.629Z,1010.68
2022-12-11T01:04:49.772Z,1010.62
2022-12-11T01:05:49.942Z,1010.62
2022-12-11T01:06:50.174Z,1010.62
2022-12-11T01:07:50.329Z,1010.60
2022-12-11T01:08:50.462Z,1010.58
2022-12-11T01:09:50.645Z,1010.60
2022-12-11T01:10:50.847Z,1010.57
2022-12-11T01:11:51.015Z,1010.61
2022-12-11T01:12:51.173Z,1010.58
2022-12-11T01:13:51.353Z,1010.60
2022-12-11T01:14:51.515Z,1010.63
2022-12-11T01:15:51.678Z,1010.65
2022-12-11T01:16:52.517Z,1010.64
2022-12-11T01:17:52.009Z,1010.70
2022-12-11T01:18:52.177Z,1010.67
2022-12-11T01:19:52.354Z,1010.67
2022-12-11T01:20:52.541Z,1010.72
2022-12-11T01:21:52.684Z,1010.66
2022-12-11T01:22:52.854Z,1010.74
2022-12-11T01:23:53.044Z,1010.74
2022-12-11T01:24:53.197Z,1010.71
2022-12-11T01:25:53.384Z,1010.75
2022-12-11T01:26:53.556Z,1010.80
2022-12-11T01:27:53.735Z,1010.82
2022-12-11T01:28:53.888Z,1010.80
2022-12-11T01:29:54.057Z,1010.83
2022-12-11T01:30:54.511Z,1010.82
2022-12-11T01:31:54.386Z,1010.79
2022-12-11T01:32:54.548Z,1010.81
2022-12-11T01:33:54.721Z,1010.83
2022-12-11T01:34:54.874Z,1010.77
2022-12-11T01:35:55.079Z,1010.81
2022-12-11T01:36:55.243Z,1010.78
2022-12-11T01:37:55.409Z,1010.80
2022-12-11T01:38:55.576Z,1010.81
2022-12-11T01:39:55.769Z,1010.78
2022-12-11T01:40:55.949Z,1010.75
2022-12-11T01:41:56.115Z,1010.72
2022-12-11T01:42:56.269Z,1010.74
2022-12-11T01:43:56.431Z,1010.76
2022-12-11T01:44:56.614Z,1010.77
2022-12-11T01:45:56.811Z,1010.74
2022-12-11T01:46:56.947Z,1010.75
2022-12-11T01:47:57.135Z,1010.76
2022-12-11T01:48:57.283Z,1010.80
2022-12-11T01:49:57.461Z,1010.79
2022-12-11T01:50:57.637Z,1010.86
2022-12-11T01:51:57.815Z,1010.83
2022-12-11T01:52:57.963Z,1010.77
2022-12-11T01:53:58.131Z,1010.78
2022-12-11T01:54:58.314Z,1010.77
2022-12-11T01:55:58.484Z,1010.80
2022-12-11T01:56:58.661Z,1010.79
2022-12-11T01:57:58.820Z,1010.78
2022-12-11T01:58:58.978Z,1010.80
2022-12-11T01:59:59.195Z,1010.78
2022-12-11T02:00:59.377Z,1010.78
2022-12-11T02:01:59.509Z,1010.79
2022-12-11T02:02:59.662Z,1010.73
2022-12-11T02:03:59.834Z,1010.74
2022-12-11T02:05:00.036Z,1010.75
2022-12-11T02:06:00.162Z,1010.72
2022-12-11T02:07:00.317Z,1010.74
2022-12-11T02:08:00.513Z,1010.76
2022-12-11T02:09:00.670Z,1010.77
2022-12-11T02:10:00.854Z,1010.81
2022-12-11T02:11:01.026Z,1010.82
2022-12-11T02:12:01.194Z,1010.81
2022-12-11T02:13:01.401Z,1010.84
2022-12-11T02:14:01.527Z,1010.86
2022-12-11T02:15:01.713Z,1010.86
2022-12-11T02:16:01.942Z,1010.88
2022-12-11T02:17:02.031Z,1010.89
2022-12-11T02:18:02.221Z,1010.86
2022-12-11T02:19:02.361Z,1010.87
2022-12-11T02:20:02.529Z,1010.87
2022-12-11T02:21:02.706Z,1010.84
2022-12-11T02:22:02.857Z,1010.91
2022-12-11T02:23:03.033Z,1010.93
2022-12-11T02:24:03.205Z,1010.88
2022-12-11T02:25:03.359Z,1010.94
2022-12-11T02:26:03.544Z,1010.93
2022-12-11T02:27:03.708Z,1010.89
2022-12-11T02:28:03.878Z,1010.92
2022-12-11T02:29:04.038Z,1010.93
2022-12-11T02:30:04.219Z,1010.87
2022-12-11T02:31:04.440Z,1010.89
2022-12-11T02:32:04.570Z,1010.88
2022-12-11T02:33:04.719Z,1010.86
2022-12-11T02:34:04.892Z,1010.85
2022-12-11T02:35:05.046Z,1010.84
2022-12-11T02:36:05.241Z,1010.84
2022-12-11T02:37:05.370Z,1010.81
2022-12-11T02:38:05.549Z,1010.76
2022-12-11T02:39:05.710Z,1010.75
2022-12-11T02:40:05.870Z,1010.80
2022-12-11T02:41:06.090Z,1010.75
2022-12-11T02:42:06.229Z,1010.72
2022-12-11T02:43:06.372Z,1010.72
2022-12-11T02:44:06.550Z,1010.70
2022-12-11T02:45:06.718Z,1010.70
2022-12-11T02:46:06.980Z,1010.77
2022-12-11T02:47:07.071Z,1010.78
2022-12-11T02:48:07.225Z,1010.80
2022-12-11T02:49:07.392Z,1010.83
2022-12-11T02:50:07.559Z,1010.77
2022-12-11T02:51:07.762Z,1010.76
2022-12-11T02:52:07.889Z,1010.79
2022-12-11T02:53:08.054Z,1010.74
2022-12-11T02:54:08.223Z,1010.68
2022-12-11T02:55:08.489Z,1010.72
2022-12-11T02:56:08.595Z,1010.69
2022-12-11T02:57:08.713Z,1010.70
2022-12-11T02:58:08.885Z,1010.66
2022-12-11T02:59:09.054Z,1010.67
2022-12-11T03:00:09.227Z,1010.66
2022-12-11T03:01:09.448Z,1010.72
2022-12-11T03:02:09.607Z,1010.77
2022-12-11T03:03:09.747Z,1010.71
2022-12-11T03:04:09.916Z,1010.77
2022-12-11T03:05:10.281Z,1010.78
2022-12-11T03:06:10.278Z,1010.78
2022-12-11T03:07:10.434Z,1010.77
2022-12-11T03:08:10.636Z,1010.72
2022-12-11T03:09:10.799Z,1010.72
2022-12-11T03:10:10.961Z,1010.77
2022-12-11T03:11:11.141Z,1010.75
2022-12-11T03:12:11.296Z,1010.80
2022-12-11T03:13:11.451Z,1010.75
2022-12-11T03:14:11.614Z,1010.78
2022-12-11T03:15:12.084Z,1010.77
2022-12-11T03:16:11.967Z,1010.77
2022-12-11T03:17:12.118Z,1010.79
2022-12-11T03:18:12.277Z,1010.78
2022-12-11T03:19:12.431Z,1010.75
2022-12-11T03:20:12.617Z,1010.77
2022-12-11T03:21:12.772Z,1010.81
2022-12-11T03:22:12.965Z,1010.82
2022-12-11T03:23:13.123Z,1010.79
2022-12-11T03:24:13.304Z,1010.79
2022-12-11T03:25:13.729Z,1010.78
2022-12-11T03:26:13.649Z,1010.73
2022-12-11T03:27:13.841Z,1010.76
2022-12-11T03:28:13.997Z,1010.76
2022-12-11T03:29:14.156Z,1010.76
2022-12-11T03:30:14.320Z,1010.78
2022-12-11T03:31:14.578Z,1010.81
2022-12-11T03:32:14.669Z,1010.76
2022-12-11T03:33:14.817Z,1010.77
2022-12-11T03:34:15.006Z,1010.78
2022-12-11T03:35:15.435Z,1010.77
2022-12-11T03:36:15.361Z,1010.73
2022-12-11T03:37:15.549Z,1010.72
2022-12-11T03:38:15.702Z,1010.79
2022-12-11T03:39:15.874Z,1010.76
2022-12-11T03:40:16.047Z,1010.86
2022-12-11T03:41:16.227Z,1010.80
2022-12-11T03:42:16.423Z,1010.86
2022-12-11T03:43:16.599Z,1010.83
2022-12-11T03:44:23.767Z,1010.75
2022-12-11T03:45:16.929Z,1010.72
2022-12-11T03:46:17.183Z,1010.71
2022-12-11T03:47:20.197Z,1010.72
2022-12-11T03:48:17.430Z,1010.77
2022-12-11T03:49:17.587Z,1010.79
2022-12-11T03:50:17.780Z,1010.82
2022-12-11T03:51:17.974Z,1010.78
2022-12-11T03:52:18.140Z,1010.78
2022-12-11T03:53:18.312Z,1010.79
2022-12-11T03:54:18.466Z,1010.80
2022-12-11T03:55:18.629Z,1010.78
2022-12-11T03:56:18.784Z,1010.72
2022-12-11T03:57:18.969Z,1010.77
2022-12-11T03:58:19.178Z,1010.78
2022-12-11T03:59:19.326Z,1010.83
2022-12-11T04:00:19.505Z,1010.77
2022-12-11T04:01:19.663Z,1010.77
2022-12-11T04:02:19.850Z,1010.71
2022-12-11T04:03:20.021Z,1010.76
2022-12-11T04:04:20.247Z,1010.77
2022-12-11T04:05:20.332Z,1010.77
2022-12-11T04:06:20.493Z,1010.76
2022-12-11T04:07:20.637Z,1010.66
2022-12-11T04:08:20.909Z,1010.70
2022-12-11T04:09:21.009Z,1010.68
2022-12-11T04:10:21.205Z,1010.72
2022-12-11T04:11:21.354Z,1010.69
2022-12-11T04:12:21.548Z,1010.70
2022-12-11T04:13:21.723Z,1010.72
2022-12-11T04:14:21.872Z,1010.72
2022-12-11T04:15:22.028Z,1010.70
2022-12-11T04:16:22.249Z,1010.71
2022-12-11T04:17:22.374Z,1010.70
2022-12-11T04:18:22.564Z,1010.74
2022-12-11T04:19:22.721Z,1010.75
2022-12-11T04:20:22.905Z,1010.73
2022-12-11T04:21:23.057Z,1010.77
2022-12-11T04:22:23.247Z,1010.74
2022-12-11T04:23:23.421Z,1010.70
2022-12-11T04:24:23.646Z,1010.80
2022-12-11T04:25:23.794Z,1010.77
2022-12-11T04:26:23.946Z,1010.79
2022-12-11T04:27:24.106Z,1010.78
2022-12-11T04:28:24.297Z,1010.73
2022-12-11T04:29:24.466Z,1010.73
2022-12-11T04:30:28.030Z,1010.72
2022-12-11T04:31:25.802Z,1010.70
2022-12-11T04:32:24.972Z,1010.67
2022-12-11T04:33:25.128Z,1010.67
2022-12-11T04:34:25.326Z,1010.69
2022-12-11T04:35:25.436Z,1010.68
2022-12-11T04:36:25.632Z,1010.69
2022-12-11T04:37:25.782Z,1010.69
2022-12-11T04:38:25.974Z,1010.70
2022-12-11T04:39:26.168Z,1010.65
2022-12-11T04:40:26.318Z,1010.68
2022-12-11T04:41:26.467Z,1010.64
2022-12-11T04:42:26.658Z,1010.67
2022-12-11T04:43:26.837Z,1010.64
2022-12-11T04:44:27.072Z,1010.67
2022-12-11T04:45:27.188Z,1010.64
2022-12-11T04:46:27.430Z,1010.69
2022-12-11T04:47:27.557Z,1010.64
2022-12-11T04:48:27.749Z,1010.67
2022-12-11T04:49:27.989Z,1010.66
2022-12-11T04:50:28.098Z,1010.69
2022-12-11T04:51:28.282Z,1010.68
2022-12-11T04:52:28.420Z,1010.69
2022-12-11T04:53:28.624Z,1010.69
2022-12-11T04:54:28.833Z,1010.68
2022-12-11T04:55:28.997Z,1010.65
2022-12-11T04:56:29.130Z,1010.70
2022-12-11T04:57:29.325Z,1010.70
2022-12-11T04:58:29.505Z,1010.70
2022-12-11T04:59:29.700Z,1010.71
2022-12-11T05:00:29.940Z,1010.71
2022-12-11T05:01:30.075Z,1010.69
2022-12-11T05:02:30.299Z,1010.68
2022-12-11T05:03:30.401Z,1010.67
2022-12-11T05:04:30.591Z,1010.70
2022-12-11T05:05:30.789Z,1010.65
2022-12-11T05:06:30.913Z,1010.69
2022-12-11T05:07:31.083Z,1010.63
2022-12-11T05:08:31.290Z,1010.62
2022-12-11T05:09:31.441Z,1010.60
2022-12-11T05:10:31.637Z,1010.61
2022-12-11T05:11:31.797Z,1010.51
2022-12-11T05:12:31.963Z,1010.52
2022-12-11T05:13:32.123Z,1010.51
2022-12-11T05:14:32.286Z,1010.54
2022-12-11T05:15:32.472Z,1010.48
2022-12-11T05:16:32.636Z,1010.47
2022-12-11T05:17:32.847Z,1010.51
2022-12-11T05:18:33.006Z,1010.51
2022-12-11T05:19:33.177Z,1010.52
2022-12-11T05:20:33.365Z,1010.53
2022-12-11T05:21:35.303Z,1010.47
2022-12-11T05:22:33.692Z,1010.49
2022-12-11T05:23:33.870Z,1010.45
2022-12-11T05:24:34.022Z,1010.47
2022-12-11T05:25:34.202Z,1010.43
2022-12-11T05:26:34.383Z,1010.41
2022-12-11T05:27:34.538Z,1010.40
2022-12-11T05:28:34.718Z,1010.41
2022-12-11T05:29:34.886Z,1010.39
2022-12-11T05:30:35.073Z,1010.40
2022-12-11T05:31:35.298Z,1010.41
2022-12-11T05:32:35.394Z,1010.37
2022-12-11T05:33:35.570Z,1010.34
2022-12-11T05:34:35.727Z,1010.32
2022-12-11T05:35:35.934Z,1010.39
2022-12-11T05:36:36.105Z,1010.37
2022-12-11T05:37:36.279Z,1010.36
2022-12-11T05:38:36.434Z,1010.33
2022-12-11T05:39:36.609Z,1010.39
2022-12-11T05:40:36.809Z,1010.30
2022-12-11T05:41:37.002Z,1010.30
2022-12-11T05:42:37.149Z,1010.28
2022-12-11T05:43:37.325Z,1010.31
2022-12-11T05:44:37.476Z,1010.32
2022-12-11T05:45:37.652Z,1010.31
2022-12-11T05:46:37.864Z,1010.34
2022-12-11T05:47:38.015Z,1010.33
2022-12-11T05:48:38.165Z,1010.25
2022-12-11T05:49:38.331Z,1010.28
2022-12-11T05:50:38.517Z,1010.25
2022-12-11T05:51:38.721Z,1010.29
2022-12-11T05:52:38.837Z,1010.26
2022-12-11T05:53:39.038Z,1010.26
2022-12-11T05:54:39.196Z,1010.27
2022-12-11T05:55:39.368Z,1010.25
2022-12-11T05:56:39.535Z,1010.23
2022-12-11T05:57:39.696Z,1010.29
2022-12-11T05:58:39.852Z,1010.23
2022-12-11T05:59:40.025Z,1010.24
2022-12-11T06:00:40.208Z,1010.24
2022-12-11T06:01:40.469Z,1010.24
2022-12-11T06:02:40.673Z,1010.27
2022-12-11T06:03:40.712Z,1010.23
2022-12-11T06:04:40.878Z,1010.23
2022-12-11T06:05:41.031Z,1010.27
2022-12-11T06:06:41.239Z,1010.28
2022-12-11T06:07:41.380Z,1010.25
2022-12-11T06:08:41.562Z,1010.26
2022-12-11T06:09:41.729Z,1010.25
2022-12-11T06:10:41.889Z,1010.19
2022-12-11T06:11:42.111Z,1010.21
2022-12-11T06:12:42.270Z,1010.20
2022-12-11T06:13:42.429Z,1010.17
2022-12-11T06:14:42.611Z,1010.17
2022-12-11T06:15:42.803Z,1010.10
2022-12-11T06:16:43.037Z,1010.10
2022-12-11T06:17:43.166Z,1010.13
2022-12-11T06:18:43.324Z,1010.19
2022-12-11T06:19:43.491Z,1010.20
2022-12-11T06:20:43.649Z,1010.17
2022-12-11T06:21:43.831Z,1010.13
2022-12-11T06:22:43.990Z,1010.13
2022-12-11T06:23:44.153Z,1010.21
2022-12-11T06:24:44.318Z,1010.24
2022-12-11T06:25:44.505Z,1010.22
2022-12-11T06:26:44.660Z,1010.21
2022-12-11T06:27:44.863Z,1010.24
2022-12-11T06:28:45.018Z,1010.23
2022-12-11T06:29:45.186Z,1010.22
2022-12-11T06:30:45.353Z,1010.22
2022-12-11T06:31:45.578Z,1010.23
2022-12-11T06:32:45.699Z,1010.20
2022-12-11T06:33:45.864Z,1010.25
2022-12-11T06:34:46.065Z,1010.26
2022-12-11T06:35:46.203Z,1010.31
2022-12-11T06:36:46.365Z,1010.36
2022-12-11T06:37:46.556Z,1010.32
2022-12-11T06:38:46.707Z,1010.33
2022-12-11T06:39:46.896Z,1010.35
2022-12-11T06:40:47.068Z,1010.32
2022-12-11T06:41:47.237Z,1010.39
2022-12-11T06:42:47.399Z,1010.38
2022-12-11T06:43:47.579Z,1010.42
2022-12-11T06:44:47.725Z,1010.43
2022-12-11T06:45:47.928Z,1010.35
2022-12-11T06:46:48.056Z,1010.38
2022-12-11T06:47:48.226Z,1010.35
2022-12-11T06:48:48.389Z,1010.38
2022-12-11T06:49:48.550Z,1010.37
2022-12-11T06:50:48.718Z,1010.37
2022-12-11T06:51:48.900Z,1010.43
2022-12-11T06:52:49.085Z,1010.37
2022-12-11T06:53:49.258Z,1010.39
2022-12-11T06:54:49.408Z,1010.43
2022-12-11T06:55:49.576Z,1010.41
2022-12-11T06:56:49.746Z,1010.39
2022-12-11T06:57:49.930Z,1010.39
2022-12-11T06:58:50.088Z,1010.41
2022-12-11T06:59:50.253Z,1010.45
2022-12-11T07:00:50.453Z,1010.35
2022-12-11T07:01:50.633Z,1010.33
2022-12-11T07:02:50.787Z,1010.43
2022-12-11T07:03:50.969Z,1010.39
2022-12-11T07:04:55.023Z,1010.42
2022-12-11T07:05:51.278Z,1010.44
2022-12-11T07:06:51.447Z,1010.36
2022-12-11T07:07:51.661Z,1010.31
2022-12-11T07:08:51.800Z,1010.34
2022-12-11T07:09:51.960Z,1010.38
2022-12-11T07:10:52.122Z,1010.37
2022-12-11T07:11:52.301Z,1010.31
2022-12-11T07:12:52.493Z,1010.27
2022-12-11T07:13:52.634Z,1010.30
2022-12-11T07:14:52.802Z,1010.30
2022-12-11T07:15:52.972Z,1010.30
2022-12-11T07:16:53.227Z,1010.36
2022-12-11T07:17:53.320Z,1010.37
2022-12-11T07:18:53.482Z,1010.32
2022-12-11T07:19:53.651Z,1010.32
2022-12-11T07:20:53.831Z,1010.33
2022-12-11T07:21:53.987Z,1010.32
2022-12-11T07:22:54.179Z,1010.33
2022-12-11T07:23:54.342Z,1010.31
2022-12-11T07:24:54.503Z,1010.35
2022-12-11T07:25:54.684Z,1010.36
2022-12-11T07:26:54.854Z,1010.39
2022-12-11T07:27:55.023Z,1010.39
2022-12-11T07:28:55.212Z,1010.38
2022-12-11T07:29:55.354Z,1010.34
2022-12-11T07:30:55.530Z,1010.36
2022-12-11T07:31:55.784Z,1010.33
2022-12-11T07:32:55.906Z,1010.40
2022-12-11T07:33:56.053Z,1010.39
2022-12-11T07:34:56.203Z,1010.38
2022-12-11T07:35:56.389Z,1010.41
2022-12-11T07:36:56.553Z,1010.43
2022-12-11T07:37:56.725Z,1010.46
2022-12-11T07:38:56.893Z,1010.54
2022-12-11T07:39:57.054Z,1010.60
2022-12-11T07:40:57.224Z,1010.59
2022-12-11T07:41:57.405Z,1010.58
2022-12-11T07:42:57.574Z,1010.60
2022-12-11T07:43:57.735Z,1010.55
2022-12-11T07:44:57.900Z,1010.50
2022-12-11T07:45:58.108Z,1010.51
2022-12-11T07:46:58.250Z,1010.50
2022-12-11T07:47:58.426Z,1010.54
2022-12-11T07:48:58.591Z,1010.53
2022-12-11T07:49:58.763Z,1010.48
2022-12-11T07:50:58.917Z,1010.50
2022-12-11T07:51:59.101Z,1010.59
2022-12-11T07:52:59.272Z,1010.52
2022-12-11T07:53:59.431Z,1010.55
2022-12-11T07:54:59.597Z,1010.55
2022-12-11T07:55:59.779Z,1010.51
2022-12-11T07:56:59.941Z,1010.54
2022-12-11T07:58:00.143Z,1010.51
2022-12-11T07:59:00.297Z,1010.48
2022-12-11T08:00:00.476Z,1010.51
2022-12-11T08:01:00.688Z,1010.51
2022-12-11T08:02:00.910Z,1010.44
2022-12-11T08:03:01.032Z,1010.46
2022-12-11T08:04:01.176Z,1010.45
2022-12-11T08:05:01.348Z,1010.45
2022-12-11T08:06:01.533Z,1010.48
2022-12-11T08:07:01.711Z,1010.48
2022-12-11T08:08:01.974Z,1010.48
2022-12-11T08:09:02.080Z,1010.54
2022-12-11T08:10:02.273Z,1010.52
2022-12-11T08:11:02.413Z,1010.55
2022-12-11T08:12:02.607Z,1010.51
2022-12-11T08:13:02.790Z,1010.49
2022-12-11T08:14:02.940Z,1010.48
2022-12-11T08:15:03.119Z,1010.49
2022-12-11T08:16:03.307Z,1010.50
2022-12-11T08:17:03.529Z,1010.45
2022-12-11T08:18:03.686Z,1010.47
2022-12-11T08:19:03.831Z,1010.52
2022-12-11T08:20:04.001Z,1010.51
2022-12-11T08:21:04.164Z,1010.51
2022-12-11T08:22:04.330Z,1010.55
2022-12-11T08:23:04.533Z,1010.55
2022-12-11T08:24:04.674Z,1010.54
2022-12-11T08:25:04.851Z,1010.52
2022-12-11T08:26:05.048Z,1010.52
2022-12-11T08:27:05.196Z,1010.50
2022-12-11T08:28:05.397Z,1010.55
2022-12-11T08:29:05.549Z,1010.51
2022-12-11T08:30:05.736Z,1010.49
2022-12-11T08:31:05.929Z,1010.56
2022-12-11T08:32:11.908Z,1010.52
2022-12-11T08:33:07.243Z,1010.59
2022-12-11T08:34:06.392Z,1010.61
2022-12-11T08:35:06.553Z,1010.57
2022-12-11T08:36:06.722Z,1010.55
2022-12-11T08:37:06.872Z,1010.54
2022-12-11T08:38:07.055Z,1010.57
2022-12-11T08:39:07.212Z,1010.58
2022-12-11T08:40:07.373Z,1010.60
2022-12-11T08:41:07.558Z,1010.55
2022-12-11T08:42:07.756Z,1010.55
2022-12-11T08:43:07.925Z,1010.54
2022-12-11T08:44:11.639Z,1010.48
2022-12-11T08:45:09.663Z,1010.45
2022-12-11T08:46:08.479Z,1010.42
2022-12-11T08:47:08.594Z,1010.50
2022-12-11T08:48:08.787Z,1010.53
2022-12-11T08:49:08.955Z,1010.46
2022-12-11T08:50:09.134Z,1010.43
2022-12-11T08:51:09.304Z,1010.41
2022-12-11T08:52:09.488Z,1010.41
2022-12-11T08:55:22.982Z,1010.38
2022-12-11T08:56:23.147Z,1010.29
2022-12-11T08:57:23.332Z,1010.31
2022-12-11T08:58:23.482Z,1010.29
2022-12-11T08:59:23.663Z,1010.26
2022-12-11T09:00:23.845Z,1010.28
2022-12-11T09:01:24.067Z,1010.30
2022-12-11T09:02:37.161Z,1010.36
2022-12-11T09:03:37.355Z,1010.30
2022-12-11T09:05:29.739Z,1010.38
2022-12-11T09:06:29.842Z,1010.38
2022-12-11T09:07:30.030Z,1010.44
2022-12-11T09:08:30.244Z,1010.45
2022-12-11T09:09:30.423Z,1010.44
2022-12-11T09:10:30.564Z,1010.47
2022-12-11T09:11:30.741Z,1010.48
2022-12-11T09:12:30.915Z,1010.47
2022-12-11T09:13:31.100Z,1010.52
2022-12-11T09:14:31.278Z,1010.57
2022-12-11T09:15:31.500Z,1010.56
2022-12-11T09:16:31.632Z,1010.57
2022-12-11T09:17:31.805Z,1010.54
2022-12-11T09:18:31.987Z,1010.53
2022-12-11T09:20:47.245Z,1010.62
2022-12-11T09:21:47.404Z,1010.66
2022-12-11T09:22:47.585Z,1010.63
2022-12-11T09:23:47.761Z,1010.59
2022-12-11T09:24:47.946Z,1010.63
2022-12-11T09:25:48.104Z,1010.64
2022-12-11T09:26:48.290Z,1010.63
2022-12-11T09:27:48.467Z,1010.64
2022-12-11T09:28:48.656Z,1010.62
2022-12-11T09:29:48.847Z,1010.53
2022-12-11T09:30:49.058Z,1010.52
2022-12-11T09:31:49.151Z,1010.56
2022-12-11T09:32:49.330Z,1010.54
2022-12-11T09:33:49.507Z,1010.48
2022-12-11T09:34:49.706Z,1010.49
2022-12-11T09:35:49.891Z,1010.56
2022-12-11T09:36:50.067Z,1010.50
2022-12-11T09:37:50.226Z,1010.46
2022-12-11T09:38:50.386Z,1010.42
2022-12-11T09:39:50.582Z,1010.45
2022-12-11T09:40:50.754Z,1010.50
2022-12-11T09:41:50.905Z,1010.43
2022-12-11T09:42:51.107Z,1010.41
2022-12-11T09:43:51.241Z,1010.38
2022-12-11T09:44:51.440Z,1010.43
2022-12-11T09:45:51.616Z,1010.40
2022-12-11T09:46:51.849Z,1010.33
2022-12-11T09:47:51.913Z,1010.36
2022-12-11T09:48:52.095Z,1010.33
2022-12-11T09:49:52.264Z,1010.40
2022-12-11T09:50:52.442Z,1010.41
2022-12-11T09:51:52.610Z,1010.35
2022-12-11T09:52:52.807Z,1010.39
2022-12-11T09:53:52.968Z,1010.38
2022-12-11T09:54:53.160Z,1010.36
2022-12-11T09:55:53.300Z,1010.32
2022-12-11T09:56:53.489Z,1010.29
2022-12-11T09:57:53.654Z,1010.32
2022-12-11T09:58:53.833Z,1010.34
2022-12-11T09:59:54.018Z,1010.36
2022-12-11T10:00:54.213Z,1010.34
2022-12-11T10:01:54.372Z,1010.40
2022-12-11T10:02:54.581Z,1010.36
2022-12-11T10:03:54.695Z,1010.32
2022-12-11T10:04:54.924Z,1010.26
2022-12-11T10:05:58.332Z,1010.26
2022-12-11T10:06:56.237Z,1010.24
2022-12-11T10:07:55.439Z,1010.20
2022-12-11T10:08:55.613Z,1010.17
2022-12-11T10:09:55.803Z,1010.15
2022-12-11T10:10:55.976Z,1010.07
2022-12-11T10:11:57.049Z,1010.13
2022-12-11T10:12:56.303Z,1010.11
2022-12-11T10:13:56.474Z,1010.12
2022-12-11T10:14:56.719Z,1010.11
2022-12-11T10:15:56.873Z,1010.17
2022-12-11T10:16:57.000Z,1010.15
2022-12-11T10:18:02.986Z,1010.13
2022-12-11T10:18:58.355Z,1010.14
2022-12-11T10:19:57.560Z,1010.15
2022-12-11T10:20:57.734Z,1010.13
2022-12-11T10:21:57.919Z,1010.13
2022-12-11T10:22:58.096Z,1010.11
2022-12-11T10:23:58.282Z,1010.14
2022-12-11T10:25:10.795Z,1010.12
2022-12-11T10:25:59.631Z,1010.13
2022-12-11T10:26:58.831Z,1010.09
2022-12-11T10:27:58.987Z,1010.11
2022-12-11T10:28:59.168Z,1010.08
2022-12-11T10:29:59.378Z,1010.07
2022-12-11T10:30:59.574Z,1010.07
2022-12-11T10:31:59.705Z,1010.10
2022-12-11T10:32:59.890Z,1010.10
2022-12-11T10:34:00.086Z,1010.15
2022-12-11T10:35:00.250Z,1010.14
2022-12-11T10:36:00.453Z,1010.13
2022-12-11T10:37:00.769Z,1010.14
2022-12-11T10:38:00.724Z,1010.09
2022-12-11T10:39:00.942Z,1010.14
2022-12-11T10:40:01.089Z,1010.15
2022-12-11T10:41:01.270Z,1010.10
2022-12-11T10:42:01.408Z,1010.12
2022-12-11T10:43:01.608Z,1010.10
2022-12-11T10:44:01.813Z,1010.11
2022-12-11T10:45:01.975Z,1010.08
2022-12-11T10:46:02.223Z,1010.07
2022-12-11T10:47:02.312Z,1010.06
2022-12-11T10:48:02.526Z,1010.08
2022-12-11T10:49:02.655Z,1010.06
2022-12-11T10:50:02.834Z,1010.06
2022-12-11T10:51:03.026Z,1010.01
2022-12-11T10:52:03.183Z,1010.01
2022-12-11T10:53:03.365Z,1009.98
2022-12-11T10:54:07.137Z,1010.02
2022-12-11T10:55:03.699Z,1010.00
2022-12-11T10:56:03.933Z,1009.95
2022-12-11T10:57:04.068Z,1009.96
2022-12-11T10:58:04.213Z,1009.94
2022-12-11T10:59:04.393Z,1009.92
2022-12-11T11:00:04.602Z,1009.95
2022-12-11T11:01:04.755Z,1009.90
2022-12-11T11:02:04.933Z,1009.91
2022-12-11T11:03:05.107Z,1009.90
2022-12-11T11:04:05.246Z,1009.89
2022-12-11T11:05:05.419Z,1009.85
2022-12-11T11:06:05.606Z,1009.86
2022-12-11T11:07:05.788Z,1009.82
2022-12-11T11:08:05.990Z,1009.84
2022-12-11T11:09:06.121Z,1009.83
2022-12-11T11:10:06.306Z,1009.83
2022-12-11T11:11:06.507Z,1009.83
2022-12-11T11:12:08.193Z,1009.80
2022-12-11T11:13:06.838Z,1009.83
2022-12-11T11:14:06.978Z,1009.79
2022-12-11T11:15:07.174Z,1009.79
2022-12-11T11:16:07.370Z,1009.80
2022-12-11T11:17:07.553Z,1009.74
2022-12-11T11:18:07.677Z,1009.77
2022-12-11T11:19:07.849Z,1009.74
2022-12-11T11:20:08.029Z,1009.78
2022-12-11T11:21:08.202Z,1009.74
2022-12-11T11:22:08.348Z,1009.75
2022-12-11T11:23:08.529Z,1009.75
2022-12-11T11:24:08.745Z,1009.70
2022-12-11T11:25:09.188Z,1009.68
2022-12-11T11:26:09.098Z,1009.69
2022-12-11T11:27:13.644Z,1009.65
2022-12-11T11:28:09.420Z,1009.67
2022-12-11T11:29:09.610Z,1009.67
2022-12-11T11:30:09.769Z,1009.69
2022-12-11T11:31:09.988Z,1009.66
2022-12-11T11:32:10.110Z,1009.67
2022-12-11T11:33:10.316Z,1009.66
2022-12-11T11:34:10.464Z,1009.63
2022-12-11T11:35:10.855Z,1009.64
2022-12-11T11:36:10.852Z,1009.64
2022-12-11T11:37:11.022Z,1009.61
2022-12-11T11:38:11.171Z,1009.64
2022-12-11T11:39:11.349Z,1009.58
2022-12-11T11:40:11.531Z,1009.55
2022-12-11T11:41:15.137Z,1009.52
2022-12-11T11:42:11.889Z,1009.51
2022-12-11T11:43:12.055Z,1009.50
2022-12-11T11:44:12.253Z,1009.51
2022-12-11T11:45:12.671Z,1009.54
2022-12-11T11:46:12.640Z,1009.49
2022-12-11T11:47:12.769Z,1009.46
2022-12-11T11:48:12.975Z,1009.46
2022-12-11T11:49:13.167Z,1009.45
2022-12-11T11:50:13.377Z,1009.49
2022-12-11T11:51:13.481Z,1009.43
2022-12-11T11:52:13.656Z,1009.43
2022-12-11T11:53:13.829Z,1009.44
2022-12-11T11:54:14.045Z,1009.49
2022-12-11T11:55:18.462Z,1009.44
2022-12-11T11:56:15.325Z,1009.46
2022-12-11T11:57:14.535Z,1009.47
2022-12-11T11:58:14.707Z,1009.44
2022-12-11T11:59:14.856Z,1009.42
2022-12-11T12:00:15.021Z,1009.42
2022-12-11T12:01:15.183Z,1009.38
2022-12-11T12:02:15.370Z,1009.42
2022-12-11T12:03:15.553Z,1009.43
2022-12-11T12:04:15.710Z,1009.43
2022-12-11T12:05:15.879Z,1009.42
2022-12-11T12:06:16.065Z,1009.40
2022-12-11T12:07:16.190Z,1009.43
2022-12-11T12:08:16.425Z,1009.45
2022-12-11T12:09:16.616Z,1009.47
2022-12-11T12:10:16.721Z,1009.46
2022-12-11T12:11:16.863Z,1009.41
2022-12-11T12:12:22.788Z,1009.45